Time;durP1;ratioP1;P1;durP2;ratioP2;P2;SDS_P1;SDS_P2;PMS_P1;PMS_P2;Temp;Humidity;BMP_temperature;BMP_pressure;BME280_temperature;BME280_humidity;BME280_pressure;Samples;Min_cycle;Max_cycle;Signal;HPM_P1;HPM_P2
2022/11/17 00:02:02;;;;;;;4.70;2.53;;;;;;;3.47;59.20;99872.56;5021053;28;20073;-71
2022/11/17 00:04:30;;;;;;;6.88;2.95;;;;;;;3.58;58.45;99870.53;5021533;28;20057;-72
2022/11/17 00:06:57;;;;;;;4.85;3.00;;;;;;;3.64;58.74;99866.06;5017544;28;21292;-71
2022/11/17 00:09:23;;;;;;;8.95;3.28;;;;;;;3.42;58.91;99864.06;5006370;28;20723;-72
2022/11/17 00:14:39;;;;;;;6.43;3.50;;;;;;;3.15;59.67;99837.19;5020049;28;20044;-71
2022/11/17 00:17:10;;;;;;;5.00;3.20;;;;;;;2.52;61.60;99820.66;5019188;28;20055;-70
2022/11/17 00:22:21;;;;;;;6.03;3.25;;;;;;;3.31;59.53;99830.75;5017641;28;20113;-69
2022/11/17 00:24:47;;;;;;;5.15;2.60;;;;;;;3.39;58.92;99826.25;5021426;28;20037;-73
2022/11/17 00:27:13;;;;;;;9.75;3.58;;;;;;;2.92;59.78;99842.94;5020602;28;20103;-74
2022/11/17 00:29:39;;;;;;;5.43;3.00;;;;;;;3.26;59.14;99837.75;5007262;28;20037;-75
2022/11/17 00:34:49;;;;;;;5.63;2.83;;;;;;;3.38;58.35;99849.53;5024674;28;20033;-72
2022/11/17 00:37:15;;;;;;;6.07;2.47;;;;;;;3.28;58.59;99830.81;5011207;28;20041;-76
2022/11/17 00:39:41;;;;;;;5.97;3.53;;;;;;;3.15;58.87;99825.13;5013663;28;20025;-74
2022/11/17 00:42:07;;;;;;;4.13;3.03;;;;;;;3.63;57.83;99810.97;5021320;28;20609;-77
2022/11/17 00:44:32;;;;;;;9.10;3.08;;;;;;;3.50;57.82;99804.44;5010740;28;20041;-70
2022/11/17 00:46:58;;;;;;;5.72;3.30;;;;;;;3.31;58.33;99804.09;5018526;28;20041;-68
2022/11/17 00:49:26;;;;;;;4.50;2.78;;;;;;;3.02;59.22;99787.59;5019123;28;20044;-71
2022/11/17 00:51:53;;;;;;;5.55;3.15;;;;;;;2.83;59.16;99776.91;5016302;28;20049;-67
2022/11/17 00:54:18;;;;;;;5.55;2.45;;;;;;;2.93;59.16;99751.69;5020092;28;20036;-70
2022/11/17 00:56:44;;;;;;;3.58;2.67;;;;;;;2.86;59.39;99775.97;5018820;28;20060;-66
2022/11/17 00:59:09;;;;;;;6.30;2.72;;;;;;;2.92;58.90;99760.34;5018602;28;20041;-67
2022/11/17 01:01:35;;;;;;;4.28;2.42;;;;;;;2.84;59.18;99751.94;5019374;28;20029;-67
2022/11/17 01:04:02;;;;;;;3.15;1.92;;;;;;;3.20;58.28;99744.94;5020585;28;20067;-70
2022/11/17 01:06:36;;;;;;;4.43;3.00;;;;;;;3.49;57.64;99751.06;5005541;28;20083;-72
2022/11/17 01:09:09;;;;;;;4.93;2.63;;;;;;;3.03;58.35;99750.59;5021008;28;20040;-74
2022/11/17 01:11:34;;;;;;;4.35;2.45;;;;;;;2.95;58.56;99744.75;5022096;28;20075;-74
2022/11/17 01:14:00;;;;;;;5.00;2.53;;;;;;;2.86;58.52;99724.38;5011735;28;20033;-73
2022/11/17 01:16:27;;;;;;;5.50;2.17;;;;;;;3.09;58.08;99719.44;5024785;28;20041;-73
2022/11/17 01:18:53;;;;;;;4.78;2.55;;;;;;;2.84;58.96;99721.81;5021010;28;20048;-71
2022/11/17 01:21:24;;;;;;;4.22;2.38;;;;;;;3.13;58.25;99722.78;5006043;28;20052;-74
2022/11/17 01:23:52;;;;;;;6.68;2.65;;;;;;;2.80;58.57;99707.31;5018962;28;20526;-73
2022/11/17 01:26:21;;;;;;;6.45;1.88;;;;;;;2.52;59.31;99713.19;5019502;28;20037;-73
2022/11/17 01:28:47;;;;;;;3.85;2.15;;;;;;;2.41;59.88;99698.88;5005134;28;20072;-74
2022/11/17 01:31:15;;;;;;;3.72;1.70;;;;;;;2.61;59.32;99698.38;5023725;28;20033;-74
2022/11/17 01:33:41;;;;;;;2.95;1.42;;;;;;;2.44;59.32;99697.03;5022498;28;20045;-74
2022/11/17 01:36:11;;;;;;;3.30;2.03;;;;;;;3.00;58.21;99686.09;5013891;28;20606;-74
2022/11/17 01:38:37;;;;;;;5.20;1.70;;;;;;;3.00;58.03;99696.44;5024218;28;20042;-74
2022/11/17 01:41:04;;;;;;;3.63;1.63;;;;;;;2.56;58.72;99681.25;5017016;28;20100;-74
2022/11/17 01:43:39;;;;;;;4.18;2.17;;;;;;;2.56;59.10;99680.44;5020419;28;20048;-75
2022/11/17 01:46:11;;;;;;;2.13;1.10;;;;;;;2.85;57.64;99673.66;5020551;28;20041;-74
2022/11/17 01:48:37;;;;;;;1.67;0.77;;;;;;;2.91;57.59;99673.47;5008014;28;20053;-75
2022/11/17 01:51:03;;;;;;;3.22;1.30;;;;;;;2.73;58.07;99641.25;5021682;28;20355;-74
2022/11/17 01:53:32;;;;;;;3.03;1.27;;;;;;;2.59;58.13;99649.38;5018436;28;20053;-72
2022/11/17 01:56:02;;;;;;;1.77;0.73;;;;;;;2.33;58.97;99658.66;5018483;28;20051;-72
2022/11/17 01:58:32;;;;;;;1.67;0.75;;;;;;;2.42;58.47;99649.84;5019180;28;20487;-71
2022/11/17 02:00:58;;;;;;;2.25;0.93;;;;;;;2.45;58.08;99656.66;5019673;28;20033;-71
2022/11/17 02:03:24;;;;;;;1.50;0.80;;;;;;;2.63;57.96;99671.63;5016559;28;20060;-71
2022/11/17 02:05:58;;;;;;;1.17;0.63;;;;;;;2.65;58.08;99638.91;5016439;28;20040;-71
2022/11/17 02:08:29;;;;;;;3.10;0.85;;;;;;;2.84;57.37;99644.38;5010886;28;20060;-71
2022/11/17 02:10:55;;;;;;;1.85;1.05;;;;;;;2.37;58.72;99638.78;5017992;28;20044;-70
2022/11/17 02:13:21;;;;;;;1.80;1.05;;;;;;;2.32;58.90;99626.00;5018831;28;20104;-68
2022/11/17 02:15:47;;;;;;;1.90;0.85;;;;;;;2.90;57.27;99617.59;5022503;28;20029;-70
2022/11/17 02:18:14;;;;;;;1.77;0.90;;;;;;;2.97;57.07;99616.50;5022724;28;20563;-69
2022/11/17 02:20:49;;;;;;;2.97;1.30;;;;;;;3.04;57.18;99628.34;5020352;28;20032;-69
2022/11/17 02:23:23;;;;;;;4.53;1.63;;;;;;;2.92;56.89;99619.22;5020819;28;20069;-69
2022/11/17 02:26:03;;;;;;;2.90;1.02;;;;;;;3.00;56.86;99611.25;5022330;28;20112;-68
2022/11/17 02:28:31;;;;;;;2.25;0.85;;;;;;;2.73;57.67;99613.75;5018176;28;20048;-69
2022/11/17 02:31:15;;;;;;;2.15;0.85;;;;;;;3.30;56.22;99600.97;5028138;28;20036;-70
2022/11/17 02:33:50;;;;;;;2.13;1.00;;;;;;;3.23;56.94;99591.69;5025337;28;20041;-70
2022/11/17 02:36:51;;;;;;;3.33;1.30;;;;;;;2.85;57.60;99588.47;5029270;28;20044;-71
2022/11/17 02:39:25;;;;;;;2.40;1.27;;;;;;;2.62;58.30;99597.69;5027937;28;20152;-71
2022/11/17 02:41:59;;;;;;;3.65;1.35;;;;;;;2.89;57.82;99605.53;5028720;28;20033;-71
2022/11/17 02:44:35;;;;;;;4.32;1.48;;;;;;;3.08;57.54;99591.22;5033115;28;20037;-70
2022/11/17 02:47:10;;;;;;;3.38;1.90;;;;;;;2.69;58.59;99604.41;5051574;28;20042;-73
2022/11/17 02:49:43;;;;;;;3.97;1.77;;;;;;;3.01;57.75;99604.38;5054314;28;20033;-74
2022/11/17 02:52:09;;;;;;;6.30;1.48;;;;;;;2.72;58.27;99593.97;5052795;28;20041;-73
2022/11/17 02:54:34;;;;;;;4.43;1.95;;;;;;;2.88;58.03;99593.56;5038041;28;20120;-72
2022/11/17 02:57:00;;;;;;;3.17;1.52;;;;;;;2.75;58.29;99564.66;5050469;28;20049;-73
2022/11/17 02:59:33;;;;;;;5.22;1.33;;;;;;;2.86;58.06;99569.53;5052893;28;20029;-71
2022/11/17 03:02:02;;;;;;;3.00;1.77;;;;;;;3.18;57.39;99561.69;5040964;28;20037;-73
2022/11/17 03:04:44;;;;;;;7.95;1.50;;;;;;;2.92;57.67;99564.19;5049860;28;20037;-73
2022/11/17 03:07:23;;;;;;;3.22;1.70;;;;;;;2.99;57.81;99568.28;5047582;28;20037;-72
2022/11/17 03:09:59;;;;;;;3.03;1.13;;;;;;;2.73;58.36;99546.66;5046323;28;20086;-73
2022/11/17 03:12:39;;;;;;;3.95;2.05;;;;;;;2.93;58.06;99537.47;5036284;28;20045;-71
2022/11/17 03:15:07;;;;;;;3.15;1.42;;;;;;;3.12;57.55;99555.84;5050285;28;20029;-72
2022/11/17 03:17:56;;;;;;;3.45;1.67;;;;;;;2.77;58.21;99540.50;5048598;28;20046;-72
2022/11/17 03:20:26;;;;;;;3.30;1.40;;;;;;;2.40;59.64;99539.84;5049996;28;20041;-72
2022/11/17 03:23:00;;;;;;;2.53;1.23;;;;;;;2.52;59.12;99534.38;5047597;28;20182;-71
2022/11/17 03:25:29;;;;;;;3.55;1.73;;;;;;;2.31;59.41;99523.75;5037184;28;20041;-71
2022/11/17 03:27:58;;;;;;;4.38;1.92;;;;;;;2.54;58.66;99543.75;5041988;28;20091;-72
2022/11/17 03:30:26;;;;;;;4.15;2.28;;;;;;;2.91;58.04;99531.50;5042753;28;20096;-71
2022/11/17 03:32:58;;;;;;;4.20;2.30;;;;;;;2.52;58.43;99514.56;5026159;28;20045;-71
2022/11/17 03:35:28;;;;;;;4.50;2.35;;;;;;;2.50;58.52;99525.81;5031931;28;20159;-68
2022/11/17 03:38:00;;;;;;;5.30;2.40;;;;;;;2.75;58.29;99542.28;5032496;28;20222;-69
2022/11/17 03:40:26;;;;;;;;;;;;;;;2.82;58.09;99539.53;5025912;28;20044;-68
2022/11/17 03:42:57;;;;;;;6.50;1.70;;;;;;;2.89;58.14;99518.66;5034091;28;19991;-69
2022/11/17 03:45:29;;;;;;;4.75;2.50;;;;;;;2.33;59.43;99521.97;5030797;28;20045;-67
2022/11/17 03:48:09;;;;;;;4.70;2.22;;;;;;;3.09;57.49;99518.06;5032612;28;20049;-68
2022/11/17 03:50:38;;;;;;;5.38;3.55;;;;;;;2.84;58.08;99535.16;5027334;28;20451;-68
2022/11/17 03:53:05;;;;;;;5.93;2.67;;;;;;;2.94;57.56;99523.69;5030727;28;20048;-70
2022/11/17 03:55:55;;;;;;;5.35;3.13;;;;;;;2.51;59.02;99519.75;5023360;28;20068;-69
2022/11/17 03:58:26;;;;;;;5.68;2.88;;;;;;;2.80;58.04;99518.94;5031998;28;20056;-71
2022/11/17 04:00:53;;;;;;;4.65;2.38;;;;;;;2.52;58.64;99508.56;5035914;28;20036;-71
2022/11/17 04:03:22;;;;;;;5.63;2.92;;;;;;;2.57;58.31;99511.84;5034967;28;20061;-71
2022/11/17 04:05:48;;;;;;;4.70;3.00;;;;;;;2.59;58.20;99504.91;5035847;28;20495;-71
2022/11/17 04:08:13;;;;;;;8.95;3.33;;;;;;;2.35;59.03;99491.84;5034159;28;20140;-70
2022/11/17 04:16:08;;;;;;;5.95;2.95;;;;;;;3.00;56.67;99499.41;5034273;28;20044;-70
2022/11/17 04:18:33;;;;;;;7.38;2.42;;;;;;;2.97;56.52;99484.88;5031561;28;20041;-69
2022/11/17 04:20:59;;;;;;;5.32;2.95;;;;;;;2.82;57.33;99487.91;5042580;28;20117;-76
2022/11/17 04:23:25;;;;;;;7.97;3.78;;;;;;;2.97;57.03;99480.56;5044725;28;20069;-76
2022/11/17 04:28:41;;;;;;;6.50;3.28;;;;;;;2.19;58.52;99475.09;5022672;28;20099;-70
2022/11/17 04:31:08;;;;;;;7.70;3.40;;;;;;;2.77;57.19;99483.72;5026043;28;20709;-70
2022/11/17 04:33:35;;;;;;;10.25;3.75;;;;;;;2.49;57.84;99496.59;5021485;28;21136;-71
2022/11/17 04:36:02;;;;;;;5.68;3.17;;;;;;;3.04;56.54;99481.19;5025394;28;20379;-71
2022/11/17 04:38:28;;;;;;;6.40;3.58;;;;;;;2.67;57.42;99476.34;5008212;28;20091;-71
2022/11/17 04:43:44;;;;;;;7.00;4.10;;;;;;;2.90;56.99;99483.38;5021785;28;20044;-70
2022/11/17 04:46:09;;;;;;;7.35;4.50;;;;;;;2.67;57.41;99473.75;5027263;28;20033;-71
2022/11/17 04:48:35;;;;;;;12.52;5.60;;;;;;;2.65;57.48;99468.63;5024433;28;20083;-70
2022/11/17 04:51:00;;;;;;;9.32;5.43;;;;;;;2.30;59.00;99465.31;5024404;28;20044;-70
2022/11/17 04:53:26;;;;;;;10.20;5.53;;;;;;;2.31;58.69;99472.19;5024168;28;20076;-69
2022/11/17 04:55:51;;;;;;;15.23;5.22;;;;;;;2.32;58.85;99455.81;5023119;28;20035;-68
2022/11/17 04:58:16;;;;;;;9.18;5.05;;;;;;;2.43;58.22;99465.00;5010022;28;20055;-67
2022/11/17 05:00:42;;;;;;;10.40;5.40;;;;;;;2.46;58.06;99473.47;5023251;28;20036;-68
2022/11/17 05:03:07;;;;;;;9.15;4.57;;;;;;;2.50;57.70;99451.03;5024300;28;20044;-72
2022/11/17 05:05:33;;;;;;;13.25;5.65;;;;;;;2.07;59.26;99460.81;5023653;28;20052;-68
2022/11/17 05:07:58;;;;;;;9.60;5.50;;;;;;;2.26;58.24;99463.72;5015708;28;20068;-70
2022/11/17 05:13:21;;;;;;;8.82;4.35;;;;;;;2.36;58.27;99456.59;5024918;28;20577;-72
2022/11/17 05:18:42;;;;;;;8.80;5.13;;;;;;;2.20;58.58;99471.66;5022667;28;20044;-72
2022/11/17 05:21:10;;;;;;;11.40;5.03;;;;;;;2.05;59.01;99447.13;5026518;28;20386;-72
2022/11/17 05:23:54;;;;;;;8.27;4.60;;;;;;;1.55;60.48;99454.47;5024875;28;20042;-70
2022/11/17 05:26:26;;;;;;;17.90;6.40;;;;;;;1.87;60.09;99448.47;5023735;28;20037;-69
2022/11/17 05:28:54;;;;;;;11.15;5.32;;;;;;;1.54;60.96;99464.81;5002782;28;20068;-68
2022/11/17 05:31:19;;;;;;;11.70;6.25;;;;;;;1.82;60.73;99472.66;5025227;28;20037;-72
2022/11/17 05:33:45;;;;;;;11.00;5.13;;;;;;;1.51;61.45;99465.75;5014615;28;20532;-72
2022/11/17 05:36:11;;;;;;;12.77;5.28;;;;;;;1.31;61.87;99443.03;5028050;28;20044;-75
2022/11/17 05:38:36;;;;;;;13.60;6.63;;;;;;;1.62;61.25;99455.16;5008504;28;20040;-72
2022/11/17 05:41:02;;;;;;;12.10;6.65;;;;;;;1.76;61.11;99450.50;5017521;28;20048;-73
2022/11/17 05:43:27;;;;;;;14.88;6.35;;;;;;;1.40;61.95;99475.44;5023526;28;20047;-73
2022/11/17 05:45:53;;;;;;;11.20;5.05;;;;;;;1.33;61.60;99451.56;5025265;28;20060;-75
2022/11/17 05:48:19;;;;;;;13.00;6.10;;;;;;;1.82;60.88;99455.50;5014055;28;20041;-75
2022/11/17 05:50:44;;;;;;;12.13;6.35;;;;;;;1.42;61.74;99471.97;5029119;28;20028;-74
2022/11/17 05:53:10;;;;;;;15.32;6.75;;;;;;;1.66;60.88;99469.63;5030577;28;20094;-75
2022/11/17 05:55:35;;;;;;;16.00;7.13;;;;;;;1.81;60.69;99464.09;5013136;28;20043;-73
2022/11/17 05:58:11;;;;;;;11.82;6.18;;;;;;;1.61;60.57;99464.59;5031710;28;20041;-75
2022/11/17 06:00:38;;;;;;;10.25;5.65;;;;;;;1.81;60.31;99448.63;5026568;28;20035;-76
2022/11/17 06:03:09;;;;;;;12.05;6.80;;;;;;;1.64;60.88;99450.78;5021699;28;20048;-76
2022/11/17 06:05:35;;;;;;;10.75;5.70;;;;;;;1.68;60.50;99442.09;5014308;28;20045;-76
2022/11/17 06:08:00;;;;;;;10.93;5.50;;;;;;;1.26;61.71;99419.97;5021411;28;20040;-74
2022/11/17 06:10:26;;;;;;;13.73;6.93;;;;;;;1.59;61.22;99437.19;5030087;28;20052;-74
2022/11/17 06:12:51;;;;;;;12.43;6.28;;;;;;;1.58;61.53;99440.69;5017910;28;20045;-71
2022/11/17 06:15:17;;;;;;;14.68;7.25;;;;;;;1.47;61.98;99428.06;5029700;28;20409;-71
2022/11/17 06:17:51;;;;;;;12.63;6.63;;;;;;;1.78;61.10;99429.84;5011243;28;20053;-72
2022/11/17 06:20:23;;;;;;;14.68;6.32;;;;;;;1.38;62.06;99423.97;5012831;28;20133;-72
2022/11/17 06:22:49;;;;;;;11.65;6.10;;;;;;;1.37;62.00;99417.09;5029421;28;20053;-72
2022/11/17 06:25:16;;;;;;;17.05;7.22;;;;;;;1.43;62.53;99427.28;5029774;28;20021;-71
2022/11/17 06:27:42;;;;;;;13.65;6.53;;;;;;;1.15;63.14;99421.09;5029036;28;20045;-72
2022/11/17 06:30:08;;;;;;;15.70;6.03;;;;;;;1.06;62.96;99427.31;5033368;28;20095;-72
2022/11/17 06:32:37;;;;;;;10.98;6.20;;;;;;;1.14;63.07;99414.28;5017766;28;20148;-72
2022/11/17 06:35:05;;;;;;;17.45;6.57;;;;;;;1.28;62.51;99418.22;5027767;28;20028;-72
2022/11/17 06:37:31;;;;;;;11.45;6.25;;;;;;;1.30;62.56;99413.00;5027934;28;20045;-72
2022/11/17 06:39:56;;;;;;;12.73;6.85;;;;;;;1.39;62.04;99420.50;5029954;28;20033;-72
2022/11/17 06:43:02;;;;;;;9.75;5.93;;;;;;;1.37;62.29;99411.13;5023225;28;20042;-73
2022/11/17 06:45:08;;;;;;;11.10;5.72;;;;;;;1.23;62.10;99407.16;5029214;28;20060;-72
2022/11/17 06:47:34;;;;;;;13.65;7.50;;;;;;;1.38;61.62;99411.09;5010376;28;20594;-72
2022/11/17 06:49:59;;;;;;;12.13;6.80;;;;;;;1.52;61.33;99401.31;5011715;28;20049;-72
2022/11/17 06:52:24;;;;;;;12.93;6.72;;;;;;;1.36;62.45;99399.97;5024020;28;20056;-68
2022/11/17 06:54:50;;;;;;;16.63;7.68;;;;;;;1.12;63.01;99396.28;5009302;28;20036;-69
2022/11/17 06:57:15;;;;;;;22.15;7.47;;;;;;;1.43;61.78;99406.69;5026447;28;20072;-70
2022/11/17 06:59:41;;;;;;;12.65;6.35;;;;;;;1.21;62.12;99415.81;5011772;28;20032;-71
2022/11/17 07:02:06;;;;;;;13.07;6.80;;;;;;;1.27;61.76;99389.91;5026740;28;20049;-69
2022/11/17 07:04:32;;;;;;;14.43;6.68;;;;;;;1.42;62.02;99368.97;5025802;28;20076;-70
2022/11/17 07:06:57;;;;;;;14.40;7.03;;;;;;;1.06;62.48;99391.28;5026406;28;20398;-69
2022/11/17 07:09:24;;;;;;;15.82;6.78;;;;;;;0.79;63.07;99395.38;5022587;28;20037;-69
2022/11/17 07:11:50;;;;;;;13.63;6.85;;;;;;;1.15;62.15;99378.22;5025807;28;20040;-70
2022/11/17 07:14:15;;;;;;;12.23;6.40;;;;;;;0.88;62.51;99382.28;5022394;28;20033;-70
2022/11/17 07:16:42;;;;;;;15.02;7.43;;;;;;;1.35;61.57;99377.72;5016626;28;20037;-69
2022/11/17 07:19:09;;;;;;;15.00;6.80;;;;;;;1.46;61.50;99390.31;5014787;28;20040;-70
2022/11/17 07:21:35;;;;;;;16.08;8.77;;;;;;;1.05;62.33;99394.75;5009585;28;20037;-69
2022/11/17 07:24:01;;;;;;;8.73;4.80;;;;;;;0.74;62.77;99403.19;5011417;28;20033;-69
2022/11/17 07:26:27;;;;;;;12.98;5.97;;;;;;;0.97;62.64;99391.50;5026677;28;20069;-69
2022/11/17 07:28:52;;;;;;;15.77;7.50;;;;;;;0.90;62.94;99399.41;5009792;28;20530;-69
2022/11/17 07:31:18;;;;;;;10.50;5.00;;;;;;;0.75;63.04;99388.59;5026925;28;20087;-69
2022/11/17 07:33:43;;;;;;;14.77;8.35;;;;;;;0.79;63.00;99401.38;5020827;28;20046;-69
2022/11/17 07:36:11;;;;;;;17.50;7.57;;;;;;;0.84;62.72;99375.53;5025526;28;20048;-68
2022/11/17 07:38:38;;;;;;;16.95;7.50;;;;;;;0.75;62.95;99380.88;5025470;28;20136;-70
2022/11/17 07:41:05;;;;;;;13.73;7.47;;;;;;;0.53;63.68;99381.38;4985761;28;1204608;-70
2022/11/17 07:43:32;;;;;;;16.80;7.50;;;;;;;0.76;63.28;99372.28;5028824;28;20117;-69
2022/11/17 07:46:03;;;;;;;16.63;7.30;;;;;;;1.10;62.30;99368.03;5015611;28;20057;-70
2022/11/17 07:48:28;;;;;;;15.13;7.60;;;;;;;0.80;62.89;99358.50;5028910;28;20540;-70
2022/11/17 07:50:57;;;;;;;16.90;8.82;;;;;;;0.56;63.57;99363.31;5013057;28;20033;-70
2022/11/17 07:53:22;;;;;;;16.20;8.35;;;;;;;0.87;62.96;99365.16;5026220;28;20079;-72
2022/11/17 07:55:48;;;;;;;15.68;7.43;;;;;;;0.73;62.84;99377.53;5028619;28;20545;-69
2022/11/17 07:58:13;;;;;;;15.77;7.45;;;;;;;0.62;63.28;99364.91;5026999;28;20515;-70
2022/11/17 08:00:39;;;;;;;19.73;8.32;;;;;;;0.97;62.64;99366.66;5023421;28;20047;-69
2022/11/17 08:03:05;;;;;;;15.48;8.10;;;;;;;0.43;63.52;99364.47;5010474;28;20084;-68
2022/11/17 08:05:33;;;;;;;17.25;8.00;;;;;;;0.56;63.40;99365.88;5026329;28;20064;-68
2022/11/17 08:07:59;;;;;;;16.75;8.02;;;;;;;0.59;63.41;99349.53;5015058;28;20524;-70
2022/11/17 08:10:26;;;;;;;17.13;7.90;;;;;;;0.68;63.13;99337.31;5027617;28;20041;-70
2022/11/17 08:12:53;;;;;;;18.65;8.15;;;;;;;0.94;62.51;99347.84;5024608;28;20053;-69
2022/11/17 08:15:20;;;;;;;17.60;7.45;;;;;;;0.52;63.39;99356.53;5026929;28;20143;-70
2022/11/17 08:17:50;;;;;;;14.13;7.20;;;;;;;0.33;63.87;99339.88;5022666;28;20505;-69
2022/11/17 08:20:16;;;;;;;18.87;7.83;;;;;;;0.44;63.85;99340.47;5012100;28;20043;-68
2022/11/17 08:22:43;;;;;;;18.35;8.88;;;;;;;0.47;63.90;99340.38;5020672;28;20343;-70
2022/11/17 08:25:08;;;;;;;22.00;8.48;;;;;;;0.08;64.92;99353.25;5024412;28;20522;-70
2022/11/17 08:27:34;;;;;;;19.58;8.25;;;;;;;0.76;62.85;99338.88;5021564;28;20040;-70
2022/11/17 08:29:59;;;;;;;19.10;8.93;;;;;;;0.18;64.46;99357.28;5028134;28;20033;-70
2022/11/17 08:32:25;;;;;;;21.67;9.73;;;;;;;0.09;64.35;99336.94;5021500;28;20515;-70
2022/11/17 08:34:50;;;;;;;19.42;8.18;;;;;;;0.24;64.42;99338.34;4994899;28;20138;-69
2022/11/17 08:37:16;;;;;;;15.25;7.30;;;;;;;0.33;64.08;99334.72;5013814;28;20875;-69
2022/11/17 08:39:41;;;;;;;18.00;7.03;;;;;;;0.18;64.35;99330.75;5021651;28;20037;-69
2022/11/17 08:42:07;;;;;;;16.33;7.65;;;;;;;0.49;63.56;99333.47;5009045;28;20147;-69
2022/11/17 08:44:32;;;;;;;15.10;6.80;;;;;;;0.46;63.73;99325.84;5022560;28;20060;-70
2022/11/17 08:46:58;;;;;;;22.58;8.88;;;;;;;0.53;63.47;99336.84;5022234;28;20033;-70
2022/11/17 08:49:23;;;;;;;17.48;8.20;;;;;;;0.93;62.73;99329.00;5023982;28;20121;-69
2022/11/17 08:51:49;;;;;;;15.73;7.63;;;;;;;0.21;63.91;99328.97;5018348;28;20060;-70
2022/11/17 08:54:14;;;;;;;15.65;7.38;;;;;;;0.13;64.12;99366.00;5009582;28;20411;-70
2022/11/17 08:56:40;;;;;;;15.38;7.35;;;;;;;0.59;63.09;99324.69;5021389;28;20044;-70
2022/11/17 08:59:06;;;;;;;19.80;8.35;;;;;;;0.84;62.45;99321.53;5023773;28;20052;-70
2022/11/17 09:01:31;;;;;;;17.48;7.80;;;;;;;0.48;62.87;99326.66;5013745;28;20037;-70
2022/11/17 09:03:57;;;;;;;17.63;7.90;;;;;;;0.48;63.13;99336.94;5006068;28;20319;-70
2022/11/17 09:06:22;;;;;;;18.13;8.02;;;;;;;0.58;62.72;99343.56;5022977;28;20107;-70
2022/11/17 09:08:54;;;;;;;16.92;7.65;;;;;;;0.51;62.95;99321.44;5015045;28;20049;-70
2022/11/17 09:11:20;;;;;;;15.38;7.32;;;;;;;0.44;63.33;99335.31;5001760;28;20511;-70
2022/11/17 09:13:46;;;;;;;13.05;7.78;;;;;;;0.21;63.64;99357.25;4982464;28;20218;-70
2022/11/17 09:16:12;;;;;;;15.98;7.68;;;;;;;0.33;63.56;99347.56;5004029;28;20484;-70
2022/11/17 09:18:39;;;;;;;15.02;8.93;;;;;;;0.88;62.29;99348.84;5003215;28;20686;-70
2022/11/17 09:21:07;;;;;;;15.93;8.15;;;;;;;0.04;63.78;99349.03;5003854;28;20038;-70
2022/11/17 09:23:33;;;;;;;19.55;7.70;;;;;;;0.26;63.61;99375.97;5001112;28;20530;-67
2022/11/17 09:26:03;;;;;;;16.35;7.38;;;;;;;0.49;62.72;99359.19;5012457;28;20052;-71
2022/11/17 09:28:29;;;;;;;15.70;7.63;;;;;;;0.51;62.92;99339.44;5000056;28;20129;-69
2022/11/17 09:30:54;;;;;;;14.65;6.80;;;;;;;0.33;62.71;99353.56;5002536;28;20038;-68
2022/11/17 09:33:20;;;;;;;14.98;7.38;;;;;;;0.70;62.10;99357.84;5015183;28;20292;-69
2022/11/17 09:35:45;;;;;;;13.63;6.97;;;;;;;0.69;61.70;99357.00;5020521;28;20078;-70
2022/11/17 09:38:11;;;;;;;14.07;7.40;;;;;;;0.77;61.44;99354.28;5002597;28;20041;-69
2022/11/17 09:40:39;;;;;;;17.15;7.20;;;;;;;0.52;62.16;99369.41;4999549;28;20083;-70
2022/11/17 09:43:12;;;;;;;12.00;6.18;;;;;;;0.58;61.91;99382.13;5014661;28;20534;-69
2022/11/17 09:45:38;;;;;;;13.93;7.35;;;;;;;1.09;60.58;99368.06;5020166;28;20045;-68
2022/11/17 09:48:17;;;;;;;15.93;7.32;;;;;;;0.77;61.64;99335.41;5021152;28;20510;-69
2022/11/17 09:50:44;;;;;;;14.18;5.90;;;;;;;0.81;61.42;99347.31;5020971;28;20044;-70
2022/11/17 09:53:34;;;;;;;17.42;7.30;;;;;;;0.93;61.08;99352.16;5021682;28;20341;-69
2022/11/17 09:56:07;;;;;;;17.48;6.45;;;;;;;0.95;60.96;99346.97;4979532;28;20244;-69
2022/11/17 09:58:41;;;;;;;16.92;6.75;;;;;;;0.95;60.59;99358.13;5019770;28;20418;-72
2022/11/17 10:01:19;;;;;;;11.77;6.13;;;;;;;0.59;61.73;99350.41;5023305;28;20531;-71
2022/11/17 10:03:46;;;;;;;13.82;6.28;;;;;;;1.02;60.88;99348.53;5017793;28;20335;-71
2022/11/17 10:06:23;;;;;;;10.65;5.55;;;;;;;1.00;60.41;99342.56;5023905;28;20094;-69
2022/11/17 10:09:03;;;;;;;12.55;6.35;;;;;;;1.14;60.14;99343.06;5010933;28;20136;-69
2022/11/17 10:11:36;;;;;;;13.38;5.95;;;;;;;1.08;60.42;99350.91;5011465;28;20149;-72
2022/11/17 10:14:08;;;;;;;15.63;5.80;;;;;;;0.80;60.60;99343.06;5007660;28;20403;-68
2022/11/17 10:16:36;;;;;;;11.25;5.22;;;;;;;0.92;60.72;99347.88;5003267;28;20030;-70
2022/11/17 10:19:23;;;;;;;10.70;5.45;;;;;;;1.31;59.44;99355.50;5002738;28;20038;-71
2022/11/17 10:21:58;;;;;;;11.13;5.82;;;;;;;1.50;59.35;99358.44;5000712;28;20131;-71
2022/11/17 10:24:38;;;;;;;9.38;5.07;;;;;;;1.20;59.78;99367.81;5005961;28;20037;-70
2022/11/17 10:27:14;;;;;;;11.70;5.72;;;;;;;1.06;60.52;99356.13;5002426;28;20045;-70
2022/11/17 10:29:39;;;;;;;11.25;4.80;;;;;;;1.16;59.85;99336.13;5017223;28;20498;-69
2022/11/17 10:32:13;;;;;;;11.38;5.68;;;;;;;1.10;60.22;99326.88;5004409;28;20096;-70
2022/11/17 10:34:39;;;;;;;12.35;5.32;;;;;;;0.98;60.78;99340.03;5020335;28;20029;-68
2022/11/17 10:37:14;;;;;;;10.93;5.55;;;;;;;1.15;60.14;99331.03;5006696;28;20124;-69
2022/11/17 10:39:41;;;;;;;9.77;5.22;;;;;;;0.97;60.85;99347.78;5006252;28;20044;-69
2022/11/17 10:42:19;;;;;;;10.98;5.65;;;;;;;0.89;60.63;99347.97;5015586;28;20800;-72
2022/11/17 10:44:50;;;;;;;10.30;5.15;;;;;;;0.94;61.09;99346.13;5007885;28;20698;-70
2022/11/17 10:47:39;;;;;;;9.37;3.80;;;;;;;1.17;60.53;99347.28;5004431;28;20049;-68
2022/11/17 10:50:05;;;;;;;8.35;5.25;;;;;;;1.07;60.67;99350.09;5009507;28;20284;-72
2022/11/17 10:52:30;;;;;;;9.65;5.13;;;;;;;0.92;61.31;99337.59;5005279;28;20057;-74
2022/11/17 10:55:16;;;;;;;9.25;4.30;;;;;;;0.58;62.81;99346.13;5005222;28;20033;-73
2022/11/17 10:57:45;;;;;;;8.20;3.97;;;;;;;0.40;62.96;99321.69;5004435;28;20073;-68
2022/11/17 11:00:34;;;;;;;9.73;5.18;;;;;;;0.23;63.46;99350.34;5004941;28;20090;-69
2022/11/17 11:03:05;;;;;;;9.13;4.88;;;;;;;0.67;62.21;99327.06;5005444;28;20053;-69
2022/11/17 11:05:31;;;;;;;7.97;5.22;;;;;;;0.65;62.09;99339.13;5005928;28;20037;-70
2022/11/17 11:08:20;;;;;;;7.35;5.25;;;;;;;0.53;62.85;99354.84;5006593;28;20049;-70
2022/11/17 11:10:50;;;;;;;6.60;3.63;;;;;;;0.80;62.68;99335.34;5006283;28;20056;-69
2022/11/17 11:13:15;;;;;;;10.38;4.82;;;;;;;0.92;61.77;99331.63;5004655;28;20180;-70
2022/11/17 11:15:40;;;;;;;10.63;5.28;;;;;;;0.92;61.84;99335.03;5021980;28;20037;-69
2022/11/17 11:18:17;;;;;;;9.13;5.70;;;;;;;0.87;61.90;99329.16;5021054;28;20056;-69
2022/11/17 11:20:43;;;;;;;8.32;4.30;;;;;;;0.60;63.09;99364.09;5007009;28;20033;-69
2022/11/17 11:23:29;;;;;;;9.70;4.78;;;;;;;0.94;62.49;99332.44;5007288;28;20056;-69
2022/11/17 11:26:25;;;;;;;9.65;4.35;;;;;;;1.16;61.63;99335.31;5004873;28;20033;-69
2022/11/17 11:29:19;;;;;;;9.55;4.40;;;;;;;1.04;61.76;99332.16;5005607;28;20754;-69
2022/11/17 11:32:15;;;;;;;7.15;4.35;;;;;;;1.17;61.79;99336.97;5004177;28;20030;-69
2022/11/17 11:35:02;;;;;;;8.40;4.15;;;;;;;0.84;62.20;99334.38;5001373;28;20511;-68
2022/11/17 11:37:48;;;;;;;5.90;3.40;;;;;;;1.01;62.02;99332.22;5006767;28;20061;-70
2022/11/17 11:40:43;;;;;;;7.00;3.95;;;;;;;1.27;61.71;99338.44;5020051;28;20037;-67
2022/11/17 11:43:42;;;;;;;7.38;3.88;;;;;;;0.94;62.30;99348.69;5005131;28;20116;-69
2022/11/17 11:46:16;;;;;;;11.50;4.40;;;;;;;0.87;63.00;99335.13;5006645;28;20179;-68
2022/11/17 11:48:42;;;;;;;10.52;4.15;;;;;;;0.63;63.14;99328.00;5003720;28;20052;-69
2022/11/17 11:51:07;;;;;;;10.25;4.28;;;;;;;0.52;63.72;99348.81;5006368;28;20021;-69
2022/11/17 11:53:51;;;;;;;9.68;4.32;;;;;;;1.01;63.00;99331.38;5019706;28;20472;-69
2022/11/17 11:56:37;;;;;;;5.88;3.67;;;;;;;0.83;63.05;99327.53;5006810;28;20064;-70
2022/11/17 11:59:06;;;;;;;7.68;3.72;;;;;;;0.94;63.00;99343.56;5018421;28;20280;-69
2022/11/17 12:01:46;;;;;;;6.95;4.45;;;;;;;0.86;63.16;99342.91;5001074;28;20040;-70
2022/11/17 12:04:24;;;;;;;11.23;4.13;;;;;;;0.66;63.84;99331.38;5023584;28;20064;-70
2022/11/17 12:07:18;;;;;;;10.05;4.18;;;;;;;0.96;63.11;99349.50;5016694;28;20029;-70
2022/11/17 12:09:46;;;;;;;7.05;4.03;;;;;;;0.93;63.21;99349.59;4998693;28;20800;-69
2022/11/17 12:12:18;;;;;;;5.32;2.97;;;;;;;1.20;62.25;99357.50;5008306;28;20170;-68
2022/11/17 12:15:09;;;;;;;6.43;3.20;;;;;;;0.84;63.16;99365.25;5022178;28;20815;-68
2022/11/17 12:17:35;;;;;;;10.10;4.22;;;;;;;1.09;62.37;99368.91;5008051;28;20532;-69